Time;durP1;ratioP1;P1;durP2;ratioP2;P2;SDS_P1;SDS_P2;PMS_P1;PMS_P2;Temp;Humidity;BMP_temperature;BMP_pressure;BME280_temperature;BME280_humidity;BME280_pressure;Samples;Min_cycle;Max_cycle;Signal;HPM_P1;HPM_P2
2021/03/25 00:01:18;;;;;;;81.97;53.60;;;8.60;99.90;;;;;;4932394;29;20573;-74
2021/03/25 00:03:48;;;;;;;76.57;48.28;;;8.60;99.90;;;;;;4937457;28;20337;-72
2021/03/25 00:06:16;;;;;;;76.68;50.63;;;8.50;99.90;;;;;;4933273;29;20697;-75
2021/03/25 00:08:43;;;;;;;65.68;47.45;;;8.60;99.90;;;;;;4934217;28;20204;-74
2021/03/25 00:11:12;;;;;;;69.25;50.08;;;8.60;99.90;;;;;;4945960;29;20226;-72
2021/03/25 00:13:38;;;;;;;77.65;51.63;;;8.60;99.90;;;;;;4935349;29;20713;-73
2021/03/25 00:16:06;;;;;;;81.20;47.85;;;8.70;99.90;;;;;;4926734;29;20334;-71
2021/03/25 00:18:33;;;;;;;76.55;47.67;;;8.60;99.90;;;;;;4931187;29;20309;-73
2021/03/25 00:21:00;;;;;;;75.20;48.15;;;8.60;99.90;;;;;;4932690;29;20232;-74
2021/03/25 00:23:27;;;;;;;68.80;43.70;;;8.60;99.90;;;;;;4932598;29;20637;-74
2021/03/25 00:25:54;;;;;;;65.75;44.60;;;8.60;99.90;;;;;;4946934;28;20360;-73
2021/03/25 00:28:20;;;;;;;66.30;44.60;;;8.60;99.90;;;;;;4939586;29;20292;-73
2021/03/25 00:30:47;;;;;;;65.28;43.13;;;8.60;99.90;;;;;;4932294;29;20285;-72
2021/03/25 00:33:17;;;;;;;69.32;43.42;;;8.60;99.90;;;;;;4936242;29;20293;-72
2021/03/25 00:35:45;;;;;;;61.47;43.67;;;8.60;99.90;;;;;;4933831;29;20551;-75
2021/03/25 00:38:14;;;;;;;65.47;45.78;;;8.60;99.90;;;;;;4934622;29;20261;-72
2021/03/25 00:40:41;;;;;;;71.28;45.50;;;8.60;99.90;;;;;;4933885;29;20725;-74
2021/03/25 00:43:10;;;;;;;65.95;45.90;;;8.60;99.90;;;;;;4933766;29;20637;-76
2021/03/25 00:45:40;;;;;;;71.90;45.35;;;8.50;99.90;;;;;;4938944;29;20207;-73
2021/03/25 00:48:08;;;;;;;67.57;45.47;;;8.60;99.90;;;;;;4940748;28;20213;-75
2021/03/25 00:50:38;;;;;;;73.47;45.20;;;8.60;99.90;;;;;;4924965;29;20234;-72
2021/03/25 00:53:06;;;;;;;67.95;46.05;;;8.60;99.90;;;;;;4937878;29;20216;-73
2021/03/25 00:55:34;;;;;;;68.70;44.03;;;8.50;99.90;;;;;;4931349;29;20216;-74
2021/03/25 00:58:00;;;;;;;74.03;45.67;;;8.50;99.90;;;;;;4930378;29;20214;-73
2021/03/25 01:00:32;;;;;;;72.55;46.25;;;8.50;99.90;;;;;;4930503;29;20266;-74
2021/03/25 01:02:59;;;;;;;72.57;46.90;;;8.50;99.90;;;;;;4936948;29;20213;-76
2021/03/25 01:05:27;;;;;;;71.75;47.30;;;8.50;99.90;;;;;;4930038;29;20225;-74
2021/03/25 01:07:55;;;;;;;65.40;48.03;;;8.50;99.90;;;;;;4931543;29;20205;-72
2021/03/25 01:10:30;;;;;;;70.32;45.33;;;8.50;99.90;;;;;;4933604;29;20247;-73
2021/03/25 01:12:59;;;;;;;68.85;46.83;;;8.50;99.90;;;;;;4936838;29;20205;-71
2021/03/25 01:15:29;;;;;;;66.35;45.90;;;8.50;99.90;;;;;;4934581;28;20232;-71
2021/03/25 01:17:59;;;;;;;72.72;47.75;;;8.50;99.90;;;;;;4932964;29;20286;-74
2021/03/25 01:20:30;;;;;;;70.05;45.42;;;8.40;99.90;;;;;;4937249;29;20320;-71
2021/03/25 01:22:57;;;;;;;70.03;46.00;;;8.40;99.90;;;;;;4922811;29;20218;-74
2021/03/25 01:25:27;;;;;;;72.30;45.97;;;8.40;99.90;;;;;;4931085;29;20220;-72
2021/03/25 01:27:58;;;;;;;64.03;43.10;;;8.50;99.90;;;;;;4933435;29;20286;-71
2021/03/25 01:30:26;;;;;;;66.60;43.20;;;8.40;99.90;;;;;;4928218;29;20247;-73
2021/03/25 01:32:54;;;;;;;62.70;42.97;;;8.40;99.90;;;;;;4931580;29;20208;-75
2021/03/25 01:35:21;;;;;;;59.33;39.50;;;8.40;99.90;;;;;;4931933;29;20631;-74
2021/03/25 01:37:49;;;;;;;61.42;42.33;;;8.40;99.90;;;;;;4932967;29;20702;-70
2021/03/25 01:40:18;;;;;;;65.32;44.60;;;8.30;99.90;;;;;;4928444;29;20698;-74
2021/03/25 01:42:45;;;;;;;62.53;44.13;;;8.30;99.90;;;;;;4919750;29;20202;-74
2021/03/25 01:45:41;;;;;;;68.40;42.58;;;8.30;99.90;;;;;;4931614;29;20220;-74
2021/03/25 01:48:08;;;;;;;58.88;38.60;;;8.30;99.90;;;;;;4929703;29;20235;-73
2021/03/25 01:50:35;;;;;;;63.10;42.80;;;8.30;99.90;;;;;;4923088;29;20221;-71
2021/03/25 01:53:30;;;;;;;62.22;41.70;;;8.40;99.90;;;;;;4935841;29;20212;-74
2021/03/25 01:56:04;;;;;;;63.60;42.42;;;8.30;99.90;;;;;;4850520;29;20226;-74
2021/03/25 01:59:04;;;;;;;65.20;41.40;;;8.30;99.90;;;;;;4925444;29;20283;-73
2021/03/25 02:01:41;;;;;;;67.47;41.67;;;8.30;99.90;;;;;;4927954;29;20231;-72
2021/03/25 02:04:31;;;;;;;80.97;43.78;;;8.20;99.90;;;;;;4930155;29;20230;-71
2021/03/25 02:07:04;;;;;;;67.43;45.10;;;8.10;99.90;;;;;;4931283;29;20206;-73
2021/03/25 02:09:43;;;;;;;71.88;43.90;;;8.10;99.90;;;;;;4930972;29;20211;-74
2021/03/25 02:12:18;;;;;;;60.08;39.92;;;8.00;99.90;;;;;;4927680;29;20205;-73
2021/03/25 02:14:51;;;;;;;60.30;37.75;;;8.00;99.90;;;;;;4930049;29;20209;-73
2021/03/25 02:17:25;;;;;;;65.95;42.83;;;7.90;99.90;;;;;;4933931;29;20549;-74
2021/03/25 02:20:25;;;;;;;70.22;42.17;;;7.90;99.90;;;;;;4924027;29;20270;-73
2021/03/25 02:23:21;;;;;;;71.20;42.60;;;7.80;99.90;;;;;;4929301;29;20237;-72
2021/03/25 02:25:53;;;;;;;56.33;39.35;;;7.80;99.90;;;;;;4922545;29;20222;-74
2021/03/25 02:28:39;;;;;;;62.65;39.25;;;7.80;99.90;;;;;;4934277;29;20224;-74
2021/03/25 02:31:12;;;;;;;71.50;41.25;;;7.70;99.90;;;;;;4936137;29;20733;-74
2021/03/25 02:33:41;;;;;;;67.25;39.75;;;7.70;99.90;;;;;;4926983;29;20647;-72
2021/03/25 02:36:12;;;;;;;74.05;42.58;;;7.70;99.90;;;;;;4942851;29;20207;-72
2021/03/25 02:38:43;;;;;;;57.40;39.13;;;7.70;99.90;;;;;;4926118;29;20208;-73
2021/03/25 02:41:16;;;;;;;66.10;39.42;;;7.70;99.90;;;;;;4930172;29;20323;-74
2021/03/25 02:43:47;;;;;;;59.45;40.35;;;7.70;99.90;;;;;;4935517;29;20205;-74
2021/03/25 02:46:21;;;;;;;67.95;40.97;;;7.60;99.90;;;;;;4929652;29;20665;-72
2021/03/25 02:48:50;;;;;;;60.95;38.67;;;7.60;99.90;;;;;;4934130;29;20301;-74
2021/03/25 02:51:22;;;;;;;65.70;41.15;;;7.60;99.90;;;;;;4931675;29;20223;-75
2021/03/25 02:53:49;;;;;;;63.55;38.60;;;7.50;99.90;;;;;;4940250;28;20212;-72
2021/03/25 02:56:23;;;;;;;61.40;39.83;;;7.50;99.90;;;;;;4928531;29;20219;-73
2021/03/25 02:58:54;;;;;;;66.65;43.20;;;7.50;99.90;;;;;;4930762;29;20216;-72
2021/03/25 03:01:25;;;;;;;72.93;42.13;;;7.50;99.90;;;;;;4939207;29;20245;-72
2021/03/25 03:04:06;;;;;;;58.92;37.85;;;7.40;99.90;;;;;;4951007;29;20210;-72
2021/03/25 03:06:38;;;;;;;63.30;41.40;;;7.40;99.90;;;;;;4935926;29;20248;-71
2021/03/25 03:09:08;;;;;;;77.55;43.20;;;7.50;99.90;;;;;;4929383;29;20271;-73
2021/03/25 03:11:41;;;;;;;65.65;41.33;;;7.50;99.90;;;;;;4940399;29;20235;-73
2021/03/25 03:14:12;;;;;;;63.67;44.30;;;7.50;99.90;;;;;;4926606;29;20684;-75
2021/03/25 03:16:45;;;;;;;71.70;46.50;;;7.50;99.90;;;;;;4934776;29;20212;-73
2021/03/25 03:19:17;;;;;;;66.72;41.83;;;7.50;99.90;;;;;;4939531;29;20682;-72
2021/03/25 03:21:48;;;;;;;67.32;42.50;;;7.50;99.90;;;;;;4935809;28;20295;-75
2021/03/25 03:24:15;;;;;;;66.85;40.38;;;7.50;99.90;;;;;;4934663;29;20229;-74
2021/03/25 03:26:46;;;;;;;72.30;45.05;;;7.40;99.90;;;;;;4944433;28;20643;-75
2021/03/25 03:29:15;;;;;;;71.55;45.22;;;7.40;99.90;;;;;;4934127;29;20209;-76
2021/03/25 03:31:49;;;;;;;72.82;45.65;;;7.40;99.90;;;;;;4933198;29;20219;-74
2021/03/25 03:34:18;;;;;;;66.70;43.95;;;7.40;99.90;;;;;;4948981;29;20216;-73
2021/03/25 03:36:49;;;;;;;75.20;46.58;;;7.40;99.90;;;;;;4923718;29;20205;-72
2021/03/25 03:39:19;;;;;;;73.70;47.35;;;7.40;99.90;;;;;;4941565;29;20233;-72
2021/03/25 03:41:51;;;;;;;74.82;45.80;;;7.40;99.90;;;;;;4935897;29;20209;-71
2021/03/25 03:44:22;;;;;;;63.88;42.63;;;7.30;99.90;;;;;;4933365;29;20207;-74
2021/03/25 03:46:52;;;;;;;87.03;52.38;;;7.30;99.90;;;;;;4932643;28;20315;-75
2021/03/25 03:49:23;;;;;;;68.15;44.92;;;7.30;99.90;;;;;;4933888;29;20252;-75
2021/03/25 03:51:58;;;;;;;64.70;43.60;;;7.40;99.90;;;;;;4923809;29;20209;-76
2021/03/25 03:54:25;;;;;;;65.90;41.30;;;7.40;99.90;;;;;;4930832;29;20292;-75
2021/03/25 03:57:01;;;;;;;73.07;46.70;;;7.40;99.90;;;;;;4927617;29;20229;-74
2021/03/25 03:59:48;;;;;;;75.65;47.38;;;7.40;99.90;;;;;;4925877;29;20233;-75
2021/03/25 04:02:28;;;;;;;73.57;47.55;;;7.30;99.90;;;;;;4936037;29;20212;-74
2021/03/25 04:05:03;;;;;;;75.68;46.67;;;7.30;99.90;;;;;;4928572;29;20270;-74
2021/03/25 04:07:34;;;;;;;73.65;46.83;;;7.30;99.90;;;;;;4937826;29;20200;-75
2021/03/25 04:10:08;;;;;;;71.15;48.63;;;7.20;99.90;;;;;;4937330;29;20233;-75
2021/03/25 04:12:39;;;;;;;77.40;46.20;;;7.20;99.90;;;;;;4939269;29;20203;-75
2021/03/25 04:15:14;;;;;;;64.90;43.45;;;7.10;99.90;;;;;;4942344;29;20212;-73
2021/03/25 04:17:46;;;;;;;75.72;47.42;;;7.10;99.90;;;;;;4939889;29;20262;-75
2021/03/25 04:20:19;;;;;;;65.63;43.75;;;7.10;99.90;;;;;;4940288;29;20691;-75
2021/03/25 04:22:49;;;;;;;70.03;46.15;;;7.10;99.90;;;;;;4924673;29;20286;-75
2021/03/25 04:25:23;;;;;;;67.65;42.63;;;7.10;99.90;;;;;;4934814;29;20224;-72
2021/03/25 04:27:55;;;;;;;69.28;41.97;;;7.20;99.90;;;;;;4929066;29;20691;-74
2021/03/25 04:30:26;;;;;;;62.65;43.30;;;7.20;99.90;;;;;;4922329;29;20233;-74
2021/03/25 04:32:54;;;;;;;62.35;44.97;;;7.20;99.90;;;;;;4933981;29;20209;-74
2021/03/25 04:35:23;;;;;;;61.95;41.15;;;7.30;99.90;;;;;;4932666;29;20595;-74
2021/03/25 04:37:51;;;;;;;60.97;39.97;;;7.40;99.90;;;;;;4936830;28;20542;-71
2021/03/25 04:40:27;;;;;;;71.85;43.10;;;7.50;99.90;;;;;;4935905;29;20228;-75
2021/03/25 04:42:54;;;;;;;55.45;39.80;;;7.50;99.90;;;;;;4929190;29;20216;-72
2021/03/25 04:45:28;;;;;;;54.67;41.40;;;7.50;99.90;;;;;;4937453;29;20647;-75
2021/03/25 04:48:00;;;;;;;73.80;44.53;;;7.50;99.90;;;;;;4935515;29;20208;-70
2021/03/25 04:50:32;;;;;;;61.92;41.00;;;7.50;99.90;;;;;;4943780;29;20348;-70
2021/03/25 04:53:04;;;;;;;60.22;41.60;;;7.60;99.90;;;;;;4944269;29;20687;-72
2021/03/25 04:55:34;;;;;;;62.25;42.33;;;7.50;99.90;;;;;;4944519;29;20204;-71
2021/03/25 04:58:05;;;;;;;64.03;41.53;;;7.50;99.90;;;;;;4938710;28;20207;-71
2021/03/25 05:00:35;;;;;;;61.28;42.75;;;7.40;99.90;;;;;;4927625;29;20227;-72
2021/03/25 05:03:03;;;;;;;59.35;40.88;;;7.40;99.90;;;;;;4932203;29;20252;-74
2021/03/25 05:05:32;;;;;;;66.03;43.95;;;7.40;99.90;;;;;;4928671;29;20209;-75
2021/03/25 05:08:07;;;;;;;54.67;42.08;;;7.50;99.90;;;;;;4924587;29;20213;-74
2021/03/25 05:10:40;;;;;;;75.63;46.03;;;7.40;99.90;;;;;;4928240;29;20252;-73
2021/03/25 05:13:18;;;;;;;68.72;43.90;;;7.40;99.90;;;;;;4930880;29;20232;-75
2021/03/25 05:15:45;;;;;;;68.03;45.05;;;7.30;99.90;;;;;;4923973;29;20298;-72
2021/03/25 05:18:21;;;;;;;75.55;45.22;;;7.30;99.90;;;;;;4936474;29;20279;-73
2021/03/25 05:20:54;;;;;;;65.55;42.30;;;7.30;99.90;;;;;;4930822;29;20231;-74
2021/03/25 05:23:28;;;;;;;63.45;42.65;;;7.30;99.90;;;;;;4924633;29;20255;-73
2021/03/25 05:26:00;;;;;;;72.68;42.90;;;7.30;99.90;;;;;;4935954;28;20647;-74
2021/03/25 05:28:32;;;;;;;75.20;43.38;;;7.30;99.90;;;;;;4937118;29;20274;-75
2021/03/25 05:31:01;;;;;;;60.67;43.70;;;7.20;99.90;;;;;;4938661;28;20247;-74
2021/03/25 05:33:31;;;;;;;74.43;44.50;;;7.20;99.90;;;;;;4926076;29;20209;-73
2021/03/25 05:36:01;;;;;;;73.60;41.78;;;7.20;99.90;;;;;;4942419;29;20620;-74
2021/03/25 05:38:28;;;;;;;68.10;45.20;;;7.20;99.90;;;;;;4934100;28;20309;-74
2021/03/25 05:40:59;;;;;;;76.03;45.10;;;7.10;99.90;;;;;;4933053;29;20230;-73
2021/03/25 05:44:06;;;;;;;65.72;45.05;;;7.10;99.90;;;;;;4934060;29;20203;-73
2021/03/25 05:46:43;;;;;;;81.10;47.08;;;7.10;99.90;;;;;;4925670;29;20256;-72
2021/03/25 05:49:26;;;;;;;81.57;49.65;;;7.20;99.90;;;;;;4927847;29;20355;-71
2021/03/25 05:52:02;;;;;;;73.03;46.42;;;7.30;99.90;;;;;;4935448;29;20291;-73
2021/03/25 05:54:41;;;;;;;68.63;44.80;;;7.40;99.90;;;;;;4934564;29;20201;-73
2021/03/25 05:57:18;;;;;;;72.15;43.97;;;7.50;99.90;;;;;;4933200;29;20566;-72
2021/03/25 05:59:52;;;;;;;69.55;47.60;;;7.60;99.90;;;;;;4930113;28;20236;-73
2021/03/25 06:02:23;;;;;;;74.03;48.20;;;7.70;99.90;;;;;;4932423;29;20291;-71
2021/03/25 06:04:52;;;;;;;67.07;44.95;;;7.80;99.90;;;;;;4930321;29;20209;-74
2021/03/25 06:07:57;;;;;;;69.20;46.30;;;7.80;99.90;;;;;;4934463;29;20664;-74
2021/03/25 06:10:37;;;;;;;63.40;44.17;;;7.80;99.90;;;;;;4919782;29;20219;-73
2021/03/25 06:13:29;;;;;;;74.28;47.47;;;8.00;99.90;;;;;;4919246;29;20583;-73
2021/03/25 06:16:20;;;;;;;67.38;44.28;;;8.40;99.90;;;;;;4921459;29;20651;-75
2021/03/25 06:19:10;;;;;;;57.85;40.72;;;8.80;99.90;;;;;;4945251;28;20265;-73
2021/03/25 06:21:53;;;;;;;69.72;41.67;;;9.40;99.90;;;;;;4922902;29;20227;-73
2021/03/25 06:24:55;;;;;;;64.72;43.67;;;9.60;99.90;;;;;;4936805;29;20211;-76
2021/03/25 06:27:32;;;;;;;60.60;41.85;;;9.90;99.90;;;;;;4862494;28;20263;-76
2021/03/25 06:30:07;;;;;;;56.95;43.03;;;10.00;99.90;;;;;;4939959;28;20226;-80
2021/03/25 06:32:48;;;;;;;65.10;44.67;;;10.30;99.90;;;;;;4946468;28;20202;-76
2021/03/25 06:35:20;;;;;;;66.45;44.58;;;10.40;99.90;;;;;;4931266;29;20211;-77
2021/03/25 06:37:55;;;;;;;71.28;46.22;;;10.10;99.90;;;;;;4946078;29;20199;-75
2021/03/25 06:40:25;;;;;;;77.35;47.75;;;9.80;99.90;;;;;;4942040;29;20258;-75
2021/03/25 06:42:57;;;;;;;68.40;43.72;;;10.10;99.90;;;;;;4948654;29;20249;-78
2021/03/25 06:45:28;;;;;;;67.22;42.47;;;10.50;99.90;;;;;;4934468;28;20268;-75
2021/03/25 06:48:05;;;;;;;67.03;43.58;;;11.20;99.90;;;;;;4937589;29;20286;-75
2021/03/25 06:50:36;;;;;;;62.38;44.75;;;11.60;99.90;;;;;;4940680;29;20757;-76
2021/03/25 06:53:19;;;;;;;73.38;47.03;;;12.30;99.90;;;;;;4942837;29;20214;-76
2021/03/25 06:55:46;;;;;;;65.43;44.70;;;12.40;99.90;;;;;;4939755;29;20284;-74
2021/03/25 06:58:19;;;;;;;64.80;44.42;;;12.60;99.90;;;;;;4940064;29;20643;-76
2021/03/25 07:00:53;;;;;;;57.55;40.67;;;12.80;99.90;;;;;;4944717;28;20230;-72
2021/03/25 07:03:21;;;;;;;56.53;44.60;;;13.30;99.90;;;;;;4953217;29;20200;-74
2021/03/25 07:05:49;;;;;;;67.43;43.60;;;13.30;99.90;;;;;;4939617;29;20214;-73
2021/03/25 07:08:21;;;;;;;66.18;46.35;;;13.30;99.90;;;;;;4934589;28;20302;-73
2021/03/25 07:10:52;;;;;;;61.13;43.90;;;13.30;99.90;;;;;;4927574;29;20231;-76
2021/03/25 07:13:28;;;;;;;52.17;39.53;;;13.60;99.90;;;;;;4927038;29;20212;-73
2021/03/25 07:15:57;;;;;;;54.85;36.67;;;13.80;99.10;;;;;;4932511;29;20215;-73
2021/03/25 07:18:29;;;;;;;56.75;40.53;;;14.30;99.60;;;;;;4937341;29;20282;-75
2021/03/25 07:21:35;;;;;;;51.72;37.58;;;14.50;98.30;;;;;;4932864;29;20231;-75
2021/03/25 07:24:06;;;;;;;48.38;39.47;;;15.50;97.10;;;;;;4940485;29;20237;-77
2021/03/25 07:26:41;;;;;;;54.75;40.42;;;15.70;95.60;;;;;;4931345;28;20209;-77
2021/03/25 07:29:19;;;;;;;59.00;43.13;;;15.30;96.10;;;;;;4934281;29;20250;-75
2021/03/25 07:32:21;;;;;;;53.78;40.55;;;13.70;97.20;;;;;;4932571;29;20421;-74
2021/03/25 07:34:50;;;;;;;50.25;39.67;;;13.60;99.30;;;;;;4929159;29;20743;-74
2021/03/25 07:37:32;;;;;;;52.50;41.28;;;13.20;99.90;;;;;;4934127;29;20205;-74
2021/03/25 07:40:04;;;;;;;49.35;37.47;;;12.90;99.90;;;;;;4928283;29;20229;-71
2021/03/25 07:42:32;;;;;;;57.78;40.95;;;12.80;99.90;;;;;;4936617;29;20221;-71
2021/03/25 07:45:17;;;;;;;58.90;43.30;;;12.80;99.90;;;;;;4927420;29;20729;-71
2021/03/25 07:47:44;;;;;;;72.40;45.65;;;12.50;99.90;;;;;;4933625;29;20215;-72
2021/03/25 07:50:21;;;;;;;62.67;41.78;;;12.10;99.90;;;;;;4940578;29;20228;-72
2021/03/25 07:52:48;;;;;;;58.78;40.50;;;12.00;99.90;;;;;;4946765;28;20217;-72
2021/03/25 07:55:23;;;;;;;57.05;40.17;;;12.10;99.90;;;;;;4939326;29;20283;-71
2021/03/25 07:57:53;;;;;;;55.72;39.58;;;12.10;99.90;;;;;;4922855;29;20698;-72
2021/03/25 08:00:32;;;;;;;56.10;39.13;;;12.00;99.90;;;;;;4934090;29;20232;-72
2021/03/25 08:03:13;;;;;;;59.58;44.97;;;12.30;99.90;;;;;;4943299;29;20543;-70
2021/03/25 12:28:16;;;;;;;13.45;10.70;;;15.80;90.00;;;;;;4760676;30;20251;-83
2021/03/25 12:31:25;;;;;;;15.57;10.88;;;15.50;90.30;;;;;;4778574;29;21052;-84
2021/03/25 18:32:18;;;;;;;31.25;25.67;;;12.50;99.90;;;;;;4734697;30;20201;-84
2021/03/25 18:34:45;;;;;;;34.33;23.95;;;12.50;99.90;;;;;;4770746;30;20214;-83
2021/03/25 18:37:23;;;;;;;32.47;24.45;;;12.50;99.90;;;;;;4796422;30;20325;-85
2021/03/25 18:40:10;;;;;;;32.50;26.17;;;12.50;99.90;;;;;;4808736;29;20235;-85
2021/03/25 18:42:37;;;;;;;34.88;29.80;;;12.50;99.90;;;;;;4882823;29;20217;-84
2021/03/25 18:45:06;;;;;;;30.05;22.63;;;12.40;99.90;;;;;;4914673;29;20274;-86
2021/03/25 18:47:35;;;;;;;29.48;23.92;;;12.40;99.90;;;;;;4910589;29;20593;-83
2021/03/25 18:50:03;;;;;;;31.55;24.52;;;12.30;99.90;;;;;;4906409;29;20218;-87
2021/03/25 18:52:32;;;;;;;27.88;21.75;;;12.40;99.90;;;;;;4914483;29;20198;-85
2021/03/25 18:54:59;;;;;;;28.92;23.65;;;12.30;99.90;;;;;;4917754;29;20305;-86
2021/03/25 19:03:14;;;;;;;30.08;22.77;;;12.40;99.90;;;;;;4911619;29;20240;-86
2021/03/25 19:05:43;;;;;;;26.35;22.00;;;12.30;99.90;;;;;;4907950;29;20241;-86
2021/03/25 19:08:11;;;;;;;31.80;23.27;;;12.20;99.90;;;;;;4899579;29;20211;-86
2021/03/25 19:13:23;;;;;;;29.17;24.55;;;12.20;99.90;;;;;;4910333;29;20257;-86
2021/03/25 19:15:51;;;;;;;36.70;25.08;;;12.10;99.90;;;;;;4900825;29;20806;-85
2021/03/25 19:18:32;;;;;;;27.38;22.50;;;12.00;99.90;;;;;;4909644;29;20277;-86
2021/03/25 19:21:13;;;;;;;26.15;22.42;;;12.00;99.90;;;;;;4918651;29;20257;-86
2021/03/25 19:23:42;;;;;;;26.92;22.80;;;12.00;99.90;;;;;;4914311;29;20219;-82
2021/03/25 19:37:57;;;;;;;27.48;23.13;;;11.80;99.90;;;;;;4938527;29;20281;-84
2021/03/25 19:41:06;;;;;;;27.42;22.83;;;11.90;99.90;;;;;;4938498;29;20267;-84
2021/03/25 19:43:45;;;;;;;32.50;23.63;;;11.80;99.90;;;;;;4933501;29;20359;-84
2021/03/25 20:26:33;;;;;;;31.55;21.98;;;11.70;99.90;;;;;;4868111;29;20217;-83
2021/03/25 20:32:02;;;;;;;28.17;22.27;;;11.30;99.90;;;;;;4937378;29;20552;-82
2021/03/25 21:35:21;;;;;;;29.48;23.25;;;10.40;99.90;;;;;;4841819;29;20224;-82
2021/03/25 21:37:48;;;;;;;26.20;21.58;;;10.40;99.90;;;;;;4872436;29;20250;-83
2021/03/25 21:40:19;;;;;;;32.88;24.65;;;10.30;99.90;;;;;;4924658;29;20218;-83
2021/03/25 21:42:47;;;;;;;33.42;26.08;;;10.30;99.90;;;;;;4957314;29;20206;-83
2021/03/25 21:45:26;;;;;;;32.53;25.23;;;10.30;99.90;;;;;;4957473;29;20213;-83
2021/03/25 21:47:59;;;;;;;32.70;25.08;;;10.30;99.90;;;;;;4958308;29;20215;-83
2021/03/25 21:50:59;;;;;;;32.28;24.63;;;10.30;99.90;;;;;;4954135;29;20219;-84
2021/03/25 21:53:39;;;;;;;36.60;21.95;;;10.20;99.90;;;;;;4943417;29;20211;-83
2021/03/25 21:56:40;;;;;;;28.35;21.75;;;10.10;99.90;;;;;;4947045;29;20235;-84
2021/03/25 21:59:11;;;;;;;28.55;22.52;;;10.10;99.90;;;;;;4938467;29;20230;-83
2021/03/25 22:01:38;;;;;;;28.45;21.63;;;10.10;99.90;;;;;;4950457;29;20247;-83
2021/03/25 22:04:08;;;;;;;34.03;23.65;;;10.00;99.90;;;;;;4944937;29;20296;-84
2021/03/25 22:06:36;;;;;;;31.63;21.77;;;10.00;99.90;;;;;;4948363;29;20228;-84
2021/03/25 22:09:04;;;;;;;29.10;21.92;;;9.90;99.90;;;;;;4949976;29;20263;-83
2021/03/25 22:11:31;;;;;;;30.80;19.95;;;9.90;99.90;;;;;;4944524;29;20199;-83
2021/03/25 22:13:59;;;;;;;30.92;24.73;;;9.70;99.90;;;;;;4939991;29;20211;-83
2021/03/25 22:16:26;;;;;;;32.22;23.23;;;9.70;99.90;;;;;;4944493;29;20235;-84
2021/03/25 22:18:53;;;;;;;28.90;21.73;;;9.70;99.90;;;;;;4943126;29;20319;-83
2021/03/25 22:21:19;;;;;;;30.30;22.42;;;9.70;99.90;;;;;;4948218;29;20254;-83
2021/03/25 22:23:47;;;;;;;30.55;23.02;;;9.70;99.90;;;;;;4944431;29;20343;-83
2021/03/25 22:26:15;;;;;;;26.52;19.35;;;9.70;99.90;;;;;;4943624;29;20223;-83
2021/03/25 22:28:43;;;;;;;26.80;20.70;;;9.70;99.90;;;;;;4948816;29;20207;-83
2021/03/25 22:31:10;;;;;;;29.58;23.02;;;9.80;99.90;;;;;;4934231;29;20212;-83
2021/03/25 22:33:38;;;;;;;27.52;19.10;;;10.00;99.90;;;;;;4945260;29;20227;-83
2021/03/25 22:36:07;;;;;;;24.98;18.70;;;10.10;99.90;;;;;;4937952;29;20693;-84
2021/03/25 22:38:35;;;;;;;30.38;21.63;;;10.20;99.90;;;;;;4947488;29;20275;-82
2021/03/25 22:41:03;;;;;;;31.65;23.13;;;10.00;99.90;;;;;;4936418;29;20236;-82
2021/03/25 22:43:32;;;;;;;29.95;21.65;;;9.90;99.90;;;;;;4942533;29;20184;-82
2021/03/25 22:46:01;;;;;;;28.30;20.80;;;9.80;99.90;;;;;;4947218;29;20283;-82
2021/03/25 22:48:28;;;;;;;28.23;20.23;;;9.70;99.90;;;;;;4944191;29;20218;-82
2021/03/25 22:50:56;;;;;;;29.88;21.52;;;9.60;99.90;;;;;;4943361;29;20729;-82
2021/03/25 22:53:27;;;;;;;26.23;20.05;;;9.50;99.90;;;;;;4942544;29;20301;-82
2021/03/25 22:55:54;;;;;;;40.95;22.75;;;9.50;99.90;;;;;;4958234;28;20227;-82
2021/03/25 22:58:24;;;;;;;28.48;20.85;;;9.40;99.90;;;;;;4950914;29;20202;-83
2021/03/25 23:00:57;;;;;;;28.80;22.60;;;9.30;99.90;;;;;;4953519;29;20358;-82
2021/03/25 23:03:27;;;;;;;34.58;23.45;;;9.20;99.90;;;;;;4953601;29;20195;-82
2021/03/25 23:05:54;;;;;;;30.80;21.00;;;9.20;99.90;;;;;;4957876;29;20251;-82
2021/03/25 23:08:21;;;;;;;30.33;20.88;;;9.10;99.90;;;;;;4950466;29;20267;-83
2021/03/25 23:10:50;;;;;;;28.90;20.58;;;9.00;99.90;;;;;;4949715;29;20291;-82
2021/03/25 23:13:17;;;;;;;33.35;20.55;;;9.10;99.90;;;;;;4951908;29;20205;-83
2021/03/25 23:15:47;;;;;;;37.25;24.15;;;9.10;99.90;;;;;;4949908;29;20221;-81
2021/03/25 23:18:17;;;;;;;33.88;22.90;;;9.00;99.90;;;;;;4955741;29;20404;-82
2021/03/25 23:20:45;;;;;;;36.70;25.30;;;8.90;99.90;;;;;;4938239;29;20231;-82
2021/03/25 23:23:20;;;;;;;35.97;24.02;;;8.90;99.90;;;;;;4953976;29;20210;-83
2021/03/25 23:25:48;;;;;;;34.92;24.65;;;8.90;99.90;;;;;;4962398;29;20232;-82
2021/03/25 23:28:18;;;;;;;38.17;26.40;;;8.80;99.90;;;;;;4962021;29;20259;-83
2021/03/25 23:30:46;;;;;;;36.70;27.70;;;8.90;99.90;;;;;;4953074;29;20266;-83
2021/03/25 23:33:16;;;;;;;32.00;23.10;;;8.70;99.90;;;;;;4952964;29;20733;-83
2021/03/25 23:35:44;;;;;;;39.17;28.75;;;8.70;99.90;;;;;;4950896;29;20638;-83
2021/03/25 23:38:11;;;;;;;37.58;26.15;;;8.70;99.90;;;;;;4952185;29;20215;-83
2021/03/25 23:40:38;;;;;;;33.70;23.88;;;8.70;99.90;;;;;;4952378;29;20250;-83
2021/03/25 23:43:09;;;;;;;43.65;28.45;;;8.80;99.90;;;;;;4946891;29;20196;-84
2021/03/25 23:45:38;;;;;;;31.05;24.20;;;8.80;99.90;;;;;;4950970;29;20235;-82
2021/03/25 23:48:07;;;;;;;37.05;27.35;;;8.80;99.90;;;;;;4953791;29;20225;-83
2021/03/25 23:50:37;;;;;;;40.70;28.05;;;8.70;99.90;;;;;;4937543;29;20212;-82
2021/03/25 23:53:06;;;;;;;38.03;27.77;;;8.70;99.90;;;;;;4945085;29;20206;-82
2021/03/25 23:55:37;;;;;;;42.50;29.98;;;8.60;99.90;;;;;;4948684;29;20242;-82
2021/03/25 23:58:06;;;;;;;38.15;27.35;;;8.60;99.90;;;;;;4945472;29;20682;-81
